Time;durP1;ratioP1;P1;durP2;ratioP2;P2;SDS_P1;SDS_P2;PMS_P1;PMS_P2;Temp;Humidity;BMP_temperature;BMP_pressure;BME280_temperature;BME280_humidity;BME280_pressure;Samples;Min_cycle;Max_cycle;Signal;HPM_P1;HPM_P2
2023/12/08 00:09:52;;;;;;;336.08;250.02;;;;;;;22.90;65.05;99756.56;20892333;28;20519;-56
2023/12/08 00:19:54;;;;;;;341.08;253.93;;;;;;;22.92;65.52;99740.00;20858436;28;20222;-57
2023/12/08 00:29:57;;;;;;;313.30;238.45;;;;;;;22.95;67.26;99731.56;20858047;28;20225;-56
2023/12/08 00:39:59;;;;;;;277.25;201.27;;;;;;;22.95;68.63;99717.38;20932656;28;20565;-52
2023/12/08 00:50:02;;;;;;;284.17;209.60;;;;;;;22.89;68.08;99703.88;20880101;28;20511;-61
2023/12/08 01:00:05;;;;;;;343.17;263.08;;;;;;;22.86;67.82;99704.63;20916229;28;20245;-49
2023/12/08 01:10:08;;;;;;;330.30;249.95;;;;;;;22.83;67.10;99694.03;20921995;28;20199;-51
2023/12/08 01:20:10;;;;;;;314.55;236.15;;;;;;;22.79;66.85;99700.47;20917254;28;20226;-54
2023/12/08 01:30:14;;;;;;;274.25;204.05;;;;;;;22.79;66.23;99691.97;20914864;28;20200;-50
2023/12/08 01:40:16;;;;;;;241.18;169.93;;;;;;;22.75;65.29;99685.38;20915088;28;20222;-63
2023/12/08 01:50:20;;;;;;;210.00;149.95;;;;;;;22.70;65.16;99648.84;20914617;28;20204;-63
2023/12/08 02:00:21;;;;;;;181.18;130.07;;;;;;;22.67;64.59;99623.25;20913872;28;20220;-56
2023/12/08 02:10:24;;;;;;;158.07;112.60;;;;;;;22.64;64.39;99624.81;20914432;28;20203;-62
2023/12/08 02:20:26;;;;;;;141.15;102.60;;;;;;;22.60;64.56;99628.78;20914252;28;20231;-56
2023/12/08 02:30:29;;;;;;;123.88;89.22;;;;;;;22.57;64.21;99638.91;20930668;28;20622;-60
2023/12/08 02:40:31;;;;;;;104.75;76.85;;;;;;;22.62;64.33;99640.56;20930309;28;20228;-62
2023/12/08 02:50:34;;;;;;;95.38;68.82;;;;;;;22.61;63.65;99622.72;20928973;28;20208;-54
2023/12/08 03:00:35;;;;;;;84.20;60.58;;;;;;;22.59;64.06;99633.63;20934364;28;20232;-62
2023/12/08 03:10:38;;;;;;;70.72;52.42;;;;;;;22.63;63.85;99611.00;20928382;28;20206;-63
2023/12/08 03:20:40;;;;;;;61.45;45.15;;;;;;;22.68;63.42;99591.66;20926663;28;20220;-53
2023/12/08 03:30:43;;;;;;;55.67;41.05;;;;;;;22.74;63.38;99590.13;20933856;28;20596;-62
2023/12/08 03:40:45;;;;;;;50.42;36.50;;;;;;;22.74;62.77;99583.63;20925539;28;20230;-64
2023/12/08 03:50:48;;;;;;;45.85;34.10;;;;;;;22.77;62.86;99589.41;20927112;28;20230;-62
2023/12/08 04:00:50;;;;;;;39.65;28.85;;;;;;;22.79;62.65;99578.50;20888576;28;20315;-48
2023/12/08 04:10:53;;;;;;;35.53;26.90;;;;;;;22.87;62.54;99570.06;20884130;28;20195;-63
2023/12/08 04:20:55;;;;;;;29.38;22.35;;;;;;;22.87;61.91;99561.56;20917514;28;20212;-63
2023/12/08 04:30:58;;;;;;;26.38;20.75;;;;;;;22.91;62.06;99542.56;20897098;28;20592;-62
2023/12/08 04:41:00;;;;;;;24.70;18.65;;;;;;;22.93;61.79;99528.81;20880356;28;20501;-52
2023/12/08 04:51:04;;;;;;;21.73;16.20;;;;;;;22.94;61.86;99525.59;20912479;28;20200;-63
2023/12/08 05:01:07;;;;;;;18.50;13.93;;;;;;;23.00;61.72;99528.91;20918733;28;20231;-64
2023/12/08 05:11:10;;;;;;;18.13;13.00;;;;;;;23.00;61.76;99520.38;20893846;28;20737;-60
2023/12/08 05:21:12;;;;;;;109.03;80.65;;;;;;;23.05;62.76;99514.38;20886355;28;20298;-52
2023/12/08 05:31:15;;;;;;;94.10;69.30;;;;;;;23.10;62.93;99511.22;20942957;28;20269;-59
2023/12/08 05:41:17;;;;;;;59.80;43.67;;;;;;;22.83;54.59;99515.31;20894887;28;20219;-61
2023/12/08 05:51:20;;;;;;;55.65;41.33;;;;;;;22.52;55.95;99545.63;20890019;28;20287;-54
2023/12/08 06:01:22;;;;;;;57.25;40.80;;;;;;;22.35;56.30;99557.50;20898988;28;20228;-57
2023/12/08 06:11:28;;;;;;;48.30;34.75;;;;;;;22.63;57.43;99559.97;20935696;28;20329;-42
2023/12/08 06:21:29;;;;;;;40.42;29.80;;;;;;;22.72;57.17;99552.00;20918781;28;20522;-42
2023/12/08 06:31:32;;;;;;;33.38;24.98;;;;;;;22.77;57.42;99560.22;20917660;28;20200;-42
2023/12/08 06:41:34;;;;;;;28.80;21.63;;;;;;;22.74;57.50;99561.75;20928760;28;20290;-43
2023/12/08 06:51:37;;;;;;;25.60;18.75;;;;;;;22.73;57.51;99560.13;20922165;28;20199;-45
2023/12/08 07:01:39;;;;;;;22.40;15.70;;;;;;;22.72;57.61;99547.13;20907961;28;20235;-42
2023/12/08 07:11:42;;;;;;;19.35;14.13;;;;;;;22.69;57.28;99530.09;20912640;28;20291;-44
2023/12/08 07:21:44;;;;;;;16.98;12.75;;;;;;;22.59;58.03;99556.28;20923247;28;20228;-43
2023/12/08 07:31:47;;;;;;;15.45;11.30;;;;;;;22.56;58.10;99576.88;20924576;28;20595;-54
2023/12/08 07:41:49;;;;;;;13.15;9.95;;;;;;;22.48;57.96;99584.44;20916482;28;20255;-42
2023/12/08 07:51:52;;;;;;;12.10;9.35;;;;;;;22.41;58.37;99570.16;20916638;28;20207;-52
2023/12/08 08:01:53;;;;;;;10.05;8.00;;;;;;;22.37;57.93;99569.28;20932346;28;20223;-42
2023/12/08 08:11:57;;;;;;;9.48;7.13;;;;;;;22.35;58.48;99591.50;20917730;28;20200;-42
2023/12/08 08:21:58;;;;;;;7.90;6.80;;;;;;;22.28;58.53;99588.56;20921840;28;20227;-43
2023/12/08 08:32:01;;;;;;;7.38;5.90;;;;;;;22.26;58.25;99582.44;20926886;28;20195;-41
2023/12/08 08:42:04;;;;;;;7.28;5.63;;;;;;;22.22;58.25;99587.22;20927591;28;20348;-42
2023/12/08 08:52:07;;;;;;;7.00;5.00;;;;;;;22.17;58.65;99607.41;20943403;28;20191;-42
2023/12/08 09:02:09;;;;;;;6.45;4.68;;;;;;;22.13;58.51;99615.03;20922291;28;20643;-43
2023/12/08 09:12:12;;;;;;;5.72;4.28;;;;;;;22.12;58.52;99616.22;20913148;28;20241;-42
2023/12/08 09:22:15;;;;;;;4.68;3.72;;;;;;;22.04;58.97;99630.25;20917717;28;20226;-43
2023/12/08 09:32:19;;;;;;;4.82;3.47;;;;;;;22.01;58.80;99636.69;20935586;28;20207;-44
2023/12/08 09:42:30;;;;;;;4.95;3.60;;;;;;;21.99;58.42;99615.56;20941927;28;20258;-44
2023/12/08 09:52:33;;;;;;;4.03;3.03;;;;;;;21.99;58.41;99633.41;20941467;28;20210;-54
2023/12/08 10:02:35;;;;;;;3.78;3.08;;;;;;;21.93;58.70;99636.91;20935563;28;20237;-42
2023/12/08 10:12:40;;;;;;;3.13;2.28;;;;;;;21.93;58.63;99646.22;20935427;28;20229;-42
2023/12/08 10:22:49;;;;;;;2.25;1.88;;;;;;;21.87;58.63;99627.88;20940997;28;20230;-42
2023/12/08 10:32:53;;;;;;;2.33;2.10;;;;;;;21.83;58.67;99629.81;20919325;28;20503;-43
2023/12/08 10:42:55;;;;;;;1.90;1.75;;;;;;;21.84;58.71;99637.09;20925110;28;20310;-42
2023/12/08 10:52:59;;;;;;;3.03;2.30;;;;;;;21.82;58.90;99630.19;20941768;28;20225;-43
2023/12/08 11:03:02;;;;;;;1.65;1.52;;;;;;;21.79;58.20;99640.25;20938083;28;20518;-50
2023/12/08 11:13:09;;;;;;;1.55;1.42;;;;;;;21.81;58.21;99639.91;20946324;28;20302;-41
2023/12/08 11:23:12;;;;;;;1.45;1.17;;;;;;;21.78;58.40;99661.28;20928971;28;20642;-43
2023/12/08 11:33:20;;;;;;;1.58;1.48;;;;;;;21.75;58.34;99645.03;20943336;28;20204;-51
2023/12/08 11:43:27;;;;;;;1.30;1.20;;;;;;;21.72;58.07;99665.59;20936606;28;20226;-42
2023/12/08 11:53:34;;;;;;;1.40;1.10;;;;;;;21.75;57.99;99667.69;20943288;28;20241;-43
2023/12/08 12:03:44;;;;;;;1.08;0.82;;;;;;;21.70;58.47;99671.63;20941205;28;20318;-43
2023/12/08 12:13:52;;;;;;;1.05;0.90;;;;;;;21.66;58.21;99669.94;20939105;28;20199;-43
2023/12/08 12:23:56;;;;;;;0.82;0.82;;;;;;;21.69;58.10;99670.00;20931472;28;20257;-41
2023/12/08 12:34:01;;;;;;;0.90;0.90;;;;;;;21.67;58.49;99671.59;20925094;28;20215;-42
2023/12/08 12:44:06;;;;;;;1.02;0.73;;;;;;;21.65;58.41;99669.13;20906893;28;20281;-44
2023/12/08 12:54:11;;;;;;;0.65;0.63;;;;;;;21.65;58.17;99656.97;20918585;28;20203;-51
2023/12/08 13:04:15;;;;;;;0.70;0.52;;;;;;;21.68;58.30;99654.19;20878792;28;20229;-42
2023/12/08 13:14:21;;;;;;;0.85;0.60;;;;;;;21.65;58.31;99677.63;20888163;28;20228;-42
2023/12/08 13:24:26;;;;;;;0.90;0.65;;;;;;;21.62;58.36;99683.19;20843464;28;20220;-42
2023/12/08 13:34:35;;;;;;;0.98;0.80;;;;;;;21.62;58.25;99703.84;20817084;28;20291;-41
2023/12/08 13:44:52;;;;;;;0.90;0.52;;;;;;;21.59;58.09;99723.56;20836665;28;20219;-41
2023/12/08 13:55:01;;;;;;;0.52;0.45;;;;;;;21.62;58.05;99732.16;20849380;28;20254;-43
2023/12/08 14:05:05;;;;;;;0.43;0.40;;;;;;;21.65;58.23;99739.91;20886693;28;20230;-42
2023/12/08 14:15:11;;;;;;;0.30;0.30;;;;;;;21.67;57.82;99753.69;20915896;28;20238;-43
2023/12/08 14:25:14;;;;;;;0.90;0.40;;;;;;;21.70;57.94;99761.44;20929103;28;20490;-41
2023/12/08 14:35:22;;;;;;;0.30;0.30;;;;;;;21.65;58.04;99771.06;20921558;28;20258;-42
2023/12/08 14:45:28;;;;;;;0.20;0.20;;;;;;;21.61;58.17;99781.47;20919335;28;20223;-50
2023/12/08 14:55:43;;;;;;;0.38;0.20;;;;;;;21.60;57.92;99779.84;20948180;28;20222;-43
2023/12/08 15:05:52;;;;;;;0.20;0.20;;;;;;;21.64;57.55;99777.09;20905212;28;20238;-44
2023/12/08 15:15:57;;;;;;;3.72;2.83;;;;;;;21.18;56.48;99807.91;20924131;28;20195;-42
2023/12/08 15:26:03;;;;;;;4.00;2.60;;;;;;;21.14;56.50;99812.69;20919468;28;20224;-42
2023/12/08 15:36:14;;;;;;;4.85;2.67;;;;;;;21.22;56.91;99808.03;20923761;28;20200;-41
2023/12/08 15:46:21;;;;;;;12.88;7.00;;;;;;;21.04;56.49;99819.69;20916652;28;20313;-41
2023/12/08 15:56:38;;;;;;;12.05;6.10;;;;;;;21.37;57.68;99833.50;20911173;28;20532;-54
2023/12/08 16:06:43;;;;;;;8.80;5.10;;;;;;;21.38;58.61;99843.63;20915995;28;20544;-48
2023/12/08 16:16:57;;;;;;;10.73;6.97;;;;;;;21.35;58.69;99847.19;20917024;28;20284;-42
2023/12/08 16:27:20;;;;;;;7.82;5.43;;;;;;;21.41;59.02;99861.91;20912693;28;20227;-50
2023/12/08 16:37:24;;;;;;;5.28;4.10;;;;;;;21.35;57.00;99869.00;20912779;28;20240;-44
2023/12/08 16:47:27;;;;;;;5.30;3.75;;;;;;;21.33;56.88;99883.53;20915521;28;20597;-47
2023/12/08 16:57:39;;;;;;;11.73;8.48;;;;;;;21.28;56.32;99897.16;20915139;28;20595;-55
2023/12/08 17:07:52;;;;;;;10.00;6.95;;;;;;;21.48;56.17;99907.38;20914278;28;20633;-42
2023/12/08 17:17:56;;;;;;;36.55;23.48;;;;;;;21.80;56.29;99908.16;20910460;28;20206;-42
2023/12/08 17:28:05;;;;;;;75.75;48.78;;;;;;;22.15;56.31;99907.38;20875709;28;20227;-43
2023/12/08 17:38:15;;;;;;;54.92;37.53;;;;;;;22.39;55.12;99915.59;20832720;28;20318;-42
2023/12/08 17:48:18;;;;;;;45.38;31.73;;;;;;;22.43;53.97;99931.50;20846670;28;20380;-53
2023/12/08 17:58:24;;;;;;;112.97;72.75;;;;;;;22.65;54.12;99938.47;20906585;28;20536;-44
2023/12/08 18:08:41;;;;;;;108.18;72.25;;;;;;;22.71;54.15;99954.00;20987703;28;20199;-49
2023/12/08 18:18:45;;;;;;;78.88;52.35;;;;;;;22.28;54.38;99968.41;20943391;28;20257;-52
2023/12/08 18:28:48;;;;;;;59.63;40.83;;;;;;;22.31;53.42;99968.50;20989305;28;20230;-54
2023/12/08 18:38:53;;;;;;;48.53;34.38;;;;;;;22.23;53.16;99954.53;20990011;28;20199;-56
2023/12/08 18:48:57;;;;;;;41.10;29.27;;;;;;;22.36;53.88;99959.69;20875517;28;20282;-58
2023/12/08 18:59:03;;;;;;;40.83;27.58;;;;;;;22.41;54.47;99964.25;20890314;28;20223;-60
2023/12/08 19:09:09;;;;;;;57.17;36.63;;;;;;;23.02;53.62;99957.88;20913568;28;20223;-57
2023/12/08 19:19:16;;;;;;;51.80;35.63;;;;;;;23.32;52.61;99963.75;20915052;28;20277;-54
2023/12/08 19:29:27;;;;;;;53.83;35.17;;;;;;;23.47;51.37;99963.63;20920660;28;20226;-58
2023/12/08 19:39:32;;;;;;;79.03;52.33;;;;;;;23.59;51.36;99959.81;20919382;28;20259;-56
2023/12/08 19:49:35;;;;;;;88.53;60.13;;;;;;;23.72;52.09;99974.66;20911632;28;20227;-52
2023/12/08 19:59:39;;;;;;;92.18;62.47;;;;;;;24.05;53.57;99969.09;20917124;28;20228;-55
2023/12/08 20:09:50;;;;;;;115.80;83.00;;;;;;;23.47;54.05;99979.84;20902489;28;20232;-47
2023/12/08 20:20:11;;;;;;;140.15;100.68;;;;;;;23.28;54.99;99983.53;20904661;28;20211;-51
2023/12/08 20:30:26;;;;;;;149.57;103.97;;;;;;;23.21;54.90;99989.09;20904800;28;20519;-58
2023/12/08 20:40:29;;;;;;;145.93;105.88;;;;;;;23.10;55.98;99988.06;20908875;28;20497;-54
2023/12/08 20:50:30;;;;;;;146.68;106.40;;;;;;;23.05;56.94;99996.88;20915813;28;20216;-53
2023/12/08 21:00:33;;;;;;;141.90;97.93;;;;;;;22.95;57.66;100003.16;20913613;28;20239;-57
2023/12/08 21:10:35;;;;;;;145.85;99.70;;;;;;;22.76;58.38;100007.63;20903226;28;20635;-58
2023/12/08 21:20:38;;;;;;;144.90;101.95;;;;;;;22.81;58.79;100003.69;20909440;28;20584;-52
2023/12/08 21:30:40;;;;;;;122.00;85.18;;;;;;;22.79;58.40;100004.03;20906792;28;20236;-59
2023/12/08 21:40:45;;;;;;;122.35;86.68;;;;;;;22.60;58.04;100011.66;20905902;28;20249;-58
2023/12/08 21:50:47;;;;;;;134.10;94.20;;;;;;;22.49;58.56;100005.75;20905110;28;20331;-57
2023/12/08 22:00:49;;;;;;;134.57;95.18;;;;;;;22.39;58.70;100014.84;20903469;28;20659;-53
2023/12/08 22:10:51;;;;;;;142.48;99.05;;;;;;;22.45;58.41;100030.41;20899649;28;20249;-57
2023/12/08 22:20:54;;;;;;;132.18;92.78;;;;;;;22.36;58.61;100024.09;20901780;28;20271;-59
2023/12/08 22:30:56;;;;;;;138.77;95.65;;;;;;;22.22;59.18;100035.06;20909680;28;20219;-52
2023/12/08 22:40:59;;;;;;;135.48;92.75;;;;;;;22.15;59.23;100034.91;20911285;28;20219;-50
2023/12/08 22:51:01;;;;;;;138.52;96.30;;;;;;;22.12;59.11;100035.63;20914103;28;20212;-51
2023/12/08 23:01:05;;;;;;;128.65;88.45;;;;;;;22.05;59.08;100034.28;20909313;28;20212;-47
2023/12/08 23:11:07;;;;;;;118.55;82.85;;;;;;;21.94;59.40;100044.47;20907202;28;20247;-58
2023/12/08 23:21:10;;;;;;;109.03;75.25;;;;;;;21.92;59.20;100055.38;20912239;28;20669;-49
2023/12/08 23:31:13;;;;;;;99.63;67.18;;;;;;;21.88;59.58;100051.63;20911119;28;20227;-58
2023/12/08 23:41:16;;;;;;;101.47;67.97;;;;;;;21.68;59.18;100053.50;20924618;28;20215;-49
2023/12/08 23:51:17;;;;;;;91.65;62.35;;;;;;;21.54;59.75;100047.50;20918881;28;20231;-58
